createdAt,value
2018-05-12T07:39:48.052Z,20.55
2018-05-12T07:40:49.945Z,20.67
2018-05-12T07:41:51.849Z,20.74
2018-05-12T07:42:53.745Z,20.98
2018-05-12T07:43:55.554Z,20.99
2018-05-12T07:44:57.366Z,20.82
2018-05-12T07:45:59.279Z,20.72
2018-05-12T07:47:01.167Z,20.58
2018-05-12T07:48:03.078Z,20.61
2018-05-12T07:49:17.193Z,20.39
2018-05-12T07:50:19.079Z,20.61
2018-05-12T07:51:20.973Z,20.52
2018-05-12T07:52:22.850Z,20.72
2018-05-12T07:53:24.689Z,20.87
2018-05-12T07:54:26.571Z,21.01
2018-05-12T07:55:28.541Z,21.07
2018-05-12T07:56:30.492Z,21.10
2018-05-12T07:57:32.361Z,21.13
2018-05-12T07:58:46.740Z,21.16
2018-05-12T07:59:48.693Z,21.19
2018-05-12T08:00:50.577Z,21.22
2018-05-12T08:01:52.510Z,21.16
2018-05-12T08:02:54.370Z,21.12
2018-05-12T08:03:56.181Z,21.12
2018-05-12T08:04:58.060Z,21.01
2018-05-12T08:05:59.937Z,21.04
2018-05-12T08:07:01.837Z,20.95
2018-05-12T08:08:15.987Z,20.97
2018-05-12T08:09:17.868Z,20.92
2018-05-12T08:10:19.797Z,20.98
2018-05-12T08:11:21.696Z,21.04
2018-05-12T08:12:23.517Z,20.98
2018-05-12T08:13:25.401Z,20.95
2018-05-12T08:14:27.245Z,21.12
2018-05-12T08:15:29.157Z,21.27
2018-05-12T08:16:31.033Z,21.56
2018-05-12T08:17:45.188Z,21.83
2018-05-12T08:18:47.070Z,22.00
2018-05-12T08:19:49.250Z,22.14
2018-05-12T08:20:51.214Z,22.00
2018-05-12T08:21:53.049Z,21.86
2018-05-12T08:22:54.868Z,21.58
2018-05-12T08:23:56.798Z,21.42
2018-05-12T08:24:58.668Z,21.43
2018-05-12T08:26:00.629Z,21.34
2018-05-12T08:27:14.820Z,21.37
2018-05-12T08:28:16.715Z,21.43
2018-05-12T08:29:18.608Z,21.34
2018-05-12T08:30:20.497Z,21.42
2018-05-12T08:31:22.339Z,21.62
2018-05-12T08:32:24.154Z,21.79
2018-05-12T08:33:26.039Z,21.92
2018-05-12T08:34:27.919Z,22.09
2018-05-12T08:35:29.821Z,22.30
2018-05-12T08:36:44.009Z,22.47
2018-05-12T08:37:45.891Z,22.43
2018-05-12T08:38:47.795Z,22.37
2018-05-12T08:39:49.703Z,22.21
2018-05-12T08:40:51.516Z,22.17
2018-05-12T08:41:53.332Z,22.17
2018-05-12T08:42:55.220Z,22.20
2018-05-12T08:43:57.080Z,22.10
2018-05-12T08:44:58.985Z,22.09
2018-05-12T08:46:13.164Z,22.37
2018-05-12T08:47:15.083Z,22.42
2018-05-12T08:48:16.981Z,22.36
2018-05-12T08:49:18.848Z,22.24
2018-05-12T08:50:20.689Z,22.25
2018-05-12T08:51:22.525Z,21.99
2018-05-12T08:52:24.460Z,21.92
2018-05-12T08:53:26.342Z,21.91
2018-05-12T08:54:28.254Z,21.82
2018-05-12T08:55:42.433Z,21.92
2018-05-12T08:56:44.335Z,21.92
2018-05-12T08:57:46.221Z,21.82
2018-05-12T08:58:48.128Z,21.80
2018-05-12T08:59:49.970Z,21.91
2018-05-12T09:00:51.811Z,22.06
2018-05-12T09:01:53.687Z,22.17
2018-05-12T09:02:55.572Z,22.17
2018-05-12T09:03:57.474Z,22.22
2018-05-12T09:05:11.651Z,22.17
2018-05-12T09:06:13.551Z,22.12
2018-05-12T09:07:15.544Z,22.15
2018-05-12T09:08:17.315Z,22.15
2018-05-12T09:09:19.129Z,22.17
2018-05-12T09:10:21.011Z,22.15
2018-05-12T09:11:22.897Z,22.31
2018-05-12T09:12:24.803Z,22.22
2018-05-12T09:13:26.746Z,22.07
2018-05-12T09:14:40.886Z,21.94
2018-05-12T09:15:42.710Z,22.03
2018-05-12T09:16:44.545Z,22.05
2018-05-12T09:17:46.434Z,22.18
2018-05-12T09:18:48.354Z,22.27
2018-05-12T09:19:50.750Z,22.27
2018-05-12T09:20:52.529Z,22.35
2018-05-12T09:21:54.376Z,22.25
2018-05-12T09:22:56.325Z,22.24
2018-05-12T09:24:10.552Z,22.28
2018-05-12T09:25:12.487Z,22.14
2018-05-12T09:26:14.353Z,22.31
2018-05-12T09:27:16.259Z,22.49
2018-05-12T09:28:18.095Z,22.67
2018-05-12T09:29:19.907Z,22.86
2018-05-12T09:30:21.790Z,23.10
2018-05-12T09:31:23.669Z,23.31
2018-05-12T09:32:25.559Z,23.33
2018-05-12T09:33:39.735Z,23.36
2018-05-12T09:34:41.612Z,23.48
2018-05-12T09:35:43.487Z,23.42
2018-05-12T09:36:45.368Z,23.57
2018-05-12T09:37:47.188Z,23.54
2018-05-12T09:38:49.018Z,23.78
2018-05-12T09:39:50.912Z,23.93
2018-05-12T09:40:52.821Z,23.83
2018-05-12T09:41:54.696Z,23.79
2018-05-12T09:43:08.851Z,23.75
2018-05-12T09:44:10.731Z,23.75
2018-05-12T09:45:12.612Z,23.95
2018-05-12T09:46:14.497Z,24.16
2018-05-12T09:47:16.339Z,24.15
2018-05-12T09:48:18.180Z,24.35
2018-05-12T09:49:20.067Z,24.45
2018-05-12T09:50:21.943Z,24.39
2018-05-12T09:51:23.828Z,24.40
2018-05-12T09:52:38.006Z,24.37
2018-05-12T09:53:39.907Z,24.39
2018-05-12T09:54:41.812Z,24.34
2018-05-12T09:55:43.718Z,24.21
2018-05-12T09:56:45.528Z,24.32
2018-05-12T09:57:47.346Z,24.42
2018-05-12T09:58:49.237Z,24.58
2018-05-12T09:59:51.134Z,24.76
2018-05-12T10:00:53.044Z,24.69
2018-05-12T10:02:07.195Z,24.60
2018-05-12T10:03:09.086Z,24.39
2018-05-12T10:04:10.965Z,24.32
2018-05-12T10:05:12.859Z,24.32
2018-05-12T10:06:14.712Z,24.35
2018-05-12T10:07:16.559Z,24.30
2018-05-12T10:08:18.463Z,24.20
2018-05-12T10:09:20.372Z,24.18
2018-05-12T10:10:22.278Z,24.24
2018-05-12T10:11:36.446Z,24.22
2018-05-12T10:12:38.350Z,24.58
2018-05-12T10:13:40.231Z,24.68
2018-05-12T10:14:42.138Z,24.58
2018-05-12T10:15:43.972Z,24.53
2018-05-12T10:16:45.814Z,24.47
2018-05-12T10:17:47.718Z,24.45
2018-05-12T10:18:49.608Z,24.71
2018-05-12T10:19:51.517Z,24.80
2018-05-12T10:21:05.687Z,24.95
2018-05-12T10:22:07.568Z,25.23
2018-05-12T10:23:09.477Z,25.58
2018-05-12T10:24:11.374Z,25.60
2018-05-12T10:25:13.225Z,25.51
2018-05-12T10:26:15.155Z,25.36
2018-05-12T10:27:16.961Z,25.35
2018-05-12T10:28:18.848Z,25.38
2018-05-12T10:29:20.755Z,25.38
2018-05-12T10:30:34.906Z,25.21
2018-05-12T10:31:36.793Z,25.06
2018-05-12T10:32:38.700Z,25.03
2018-05-12T10:33:40.605Z,25.06
2018-05-12T10:34:42.442Z,25.06
2018-05-12T10:35:44.279Z,25.24
2018-05-12T10:36:46.278Z,25.39
2018-05-12T10:37:48.291Z,25.64
2018-05-12T10:38:50.252Z,25.54
2018-05-12T10:40:04.591Z,25.25
2018-05-12T10:41:06.570Z,25.27
2018-05-12T10:42:08.566Z,25.21
2018-05-12T10:43:10.575Z,25.36
2018-05-12T10:44:12.529Z,25.46
2018-05-12T10:45:14.482Z,25.47
2018-05-12T10:46:16.488Z,25.51
2018-05-12T10:47:18.459Z,25.15
2018-05-12T10:48:20.474Z,24.76
2018-05-12T10:49:34.772Z,24.62
2018-05-12T10:50:36.730Z,24.52
2018-05-12T10:51:38.736Z,24.35
2018-05-12T10:52:40.739Z,24.24
2018-05-12T10:53:42.664Z,24.24
2018-05-12T10:54:45.266Z,24.31
2018-05-12T10:55:47.224Z,24.46
2018-05-12T10:56:49.227Z,24.58
2018-05-12T10:57:51.279Z,24.87
2018-05-12T10:59:05.558Z,24.93
2018-05-12T11:00:07.581Z,25.05
2018-05-12T11:01:09.536Z,25.28
2018-05-12T11:02:11.503Z,25.30
2018-05-12T11:03:13.487Z,25.15
2018-05-12T11:04:15.410Z,24.90
2018-05-12T11:05:17.403Z,24.53
2018-05-12T11:06:19.457Z,24.25
2018-05-12T11:07:21.441Z,24.13
2018-05-12T11:08:35.808Z,24.10
2018-05-12T11:09:37.883Z,24.10
2018-05-12T11:10:39.818Z,24.03
2018-05-12T11:11:41.769Z,23.95
2018-05-12T11:12:43.668Z,23.80
2018-05-12T11:13:45.570Z,23.93
2018-05-12T11:14:47.571Z,24.12
2018-05-12T11:15:49.647Z,24.49
2018-05-12T11:16:51.630Z,24.81
2018-05-12T11:18:05.887Z,25.25
2018-05-12T11:19:07.941Z,25.70
2018-05-12T11:20:09.989Z,25.91
2018-05-12T11:21:11.881Z,26.02
2018-05-12T11:22:13.815Z,25.85
2018-05-12T11:23:15.767Z,25.57
2018-05-12T11:24:17.791Z,25.21
2018-05-12T11:25:19.752Z,24.99
2018-05-12T11:26:21.713Z,24.52
2018-05-12T11:27:35.946Z,24.31
2018-05-12T11:28:37.964Z,24.10
2018-05-12T11:29:39.975Z,24.13
2018-05-12T11:30:41.979Z,24.16
2018-05-12T11:31:43.890Z,24.28
2018-05-12T11:32:45.834Z,24.42
2018-05-12T11:33:47.804Z,24.58
2018-05-12T11:34:49.870Z,24.77
2018-05-12T11:35:51.867Z,24.85
2018-05-12T11:37:06.153Z,24.80
2018-05-12T11:38:08.180Z,24.52
2018-05-12T11:39:10.171Z,24.43
2018-05-12T11:40:12.161Z,24.40
2018-05-12T11:41:14.098Z,24.46
2018-05-12T11:42:16.009Z,24.25
2018-05-12T11:43:17.961Z,24.16
2018-05-12T11:44:20.063Z,24.24
2018-05-12T11:45:21.995Z,24.15
2018-05-12T11:46:36.216Z,24.08
2018-05-12T11:47:38.218Z,24.10
2018-05-12T11:48:40.251Z,24.15
2018-05-12T11:49:42.221Z,24.10
2018-05-12T11:50:44.148Z,24.15
2018-05-12T11:51:46.094Z,24.13
2018-05-12T11:52:48.099Z,24.24
2018-05-12T11:53:50.110Z,24.30
2018-05-12T11:54:52.124Z,24.49
2018-05-12T11:56:06.458Z,24.73
2018-05-12T11:57:08.468Z,24.77
2018-05-12T11:58:10.517Z,24.69
2018-05-12T11:59:12.474Z,24.67
2018-05-12T12:00:14.344Z,24.71
2018-05-12T12:01:16.263Z,24.78
2018-05-12T12:02:18.390Z,24.58
2018-05-12T12:03:20.407Z,24.45
2018-05-12T12:04:22.412Z,24.24
2018-05-12T12:05:36.681Z,24.20
2018-05-12T12:06:38.759Z,24.12
2018-05-12T12:07:40.705Z,24.13
2018-05-12T12:08:42.686Z,24.02
2018-05-12T12:09:44.619Z,24.05
2018-05-12T12:10:46.579Z,24.05
2018-05-12T12:11:48.578Z,23.98
2018-05-12T12:12:50.543Z,24.16
2018-05-12T12:13:52.515Z,24.18
2018-05-12T12:15:06.788Z,24.43
2018-05-12T12:16:08.801Z,24.46
2018-05-12T12:17:10.875Z,24.58
2018-05-12T12:18:13.104Z,24.71
2018-05-12T12:19:15.023Z,24.88
2018-05-12T12:20:16.960Z,25.00
2018-05-12T12:21:19.150Z,25.10
2018-05-12T12:22:21.187Z,25.08
2018-05-12T12:23:23.161Z,24.81
2018-05-12T12:24:37.486Z,24.55
2018-05-12T12:25:39.447Z,24.61
2018-05-12T12:26:41.500Z,24.69
2018-05-12T12:27:43.495Z,24.67
2018-05-12T12:28:45.447Z,24.78
2018-05-12T12:29:47.363Z,24.91
2018-05-12T12:30:49.362Z,25.05
2018-05-12T12:31:51.409Z,25.06
2018-05-12T12:32:53.399Z,25.14
2018-05-12T12:34:07.684Z,25.10
2018-05-12T12:35:09.649Z,25.10
2018-05-12T12:36:11.606Z,25.18
2018-05-12T12:37:13.601Z,25.09
2018-05-12T12:38:15.517Z,25.10
2018-05-12T12:39:17.479Z,24.96
2018-05-12T12:40:19.471Z,24.93
2018-05-12T12:41:21.496Z,25.03
2018-05-12T12:42:23.517Z,25.06
2018-05-12T12:43:37.834Z,25.14
2018-05-12T12:44:39.784Z,25.09
2018-05-12T12:45:41.747Z,25.10
2018-05-12T12:46:43.745Z,25.08
2018-05-12T12:47:45.662Z,25.10
2018-05-12T12:48:47.619Z,25.18
2018-05-12T12:49:49.618Z,25.18
2018-05-12T12:50:51.644Z,25.30
2018-05-12T12:51:53.627Z,25.39
2018-05-12T12:53:07.952Z,25.40
2018-05-12T12:54:09.965Z,25.35
2018-05-12T12:55:11.966Z,25.39
2018-05-12T12:56:14.229Z,25.46
2018-05-12T12:57:16.199Z,25.57
2018-05-12T12:58:18.122Z,25.61
2018-05-12T12:59:20.079Z,25.57
2018-05-12T13:00:22.069Z,25.42
2018-05-12T13:01:24.010Z,25.32
2018-05-12T13:02:38.393Z,25.15
2018-05-12T13:03:40.401Z,25.09
2018-05-12T13:04:42.407Z,25.08
2018-05-12T13:05:44.364Z,25.09
2018-05-12T13:06:46.297Z,25.15
2018-05-12T13:07:48.263Z,25.20
2018-05-12T13:08:50.242Z,25.35
2018-05-12T13:09:52.393Z,25.43
2018-05-12T13:10:54.393Z,25.60
2018-05-12T13:12:08.659Z,25.65
2018-05-12T13:13:10.694Z,25.64
2018-05-12T13:14:12.613Z,25.73
2018-05-12T13:15:14.617Z,25.64
2018-05-12T13:16:16.507Z,25.55
2018-05-12T13:17:18.412Z,25.55
2018-05-12T13:18:20.397Z,25.52
2018-05-12T13:19:22.370Z,25.55
2018-05-12T13:20:24.413Z,25.65
2018-05-12T13:21:38.733Z,25.62
2018-05-12T13:22:40.736Z,25.72
2018-05-12T13:23:42.746Z,25.72
2018-05-12T13:24:44.721Z,25.73
2018-05-12T13:25:46.704Z,25.67
2018-05-12T13:26:48.612Z,25.60
2018-05-12T13:27:50.688Z,25.40
2018-05-12T13:28:52.544Z,25.28
2018-05-12T13:29:54.457Z,25.09
2018-05-12T13:31:08.600Z,25.09
2018-05-12T13:32:10.483Z,25.27
2018-05-12T13:33:12.384Z,25.38
2018-05-12T13:34:14.267Z,25.36
2018-05-12T13:35:16.109Z,25.46
2018-05-12T13:36:17.945Z,25.51
2018-05-12T13:37:19.850Z,25.72
2018-05-12T13:38:21.737Z,25.75
2018-05-12T13:39:23.617Z,25.90
2018-05-12T13:40:37.804Z,25.82
2018-05-12T13:41:39.713Z,25.76
2018-05-12T13:42:41.671Z,25.72
2018-05-12T13:43:43.532Z,25.70
2018-05-12T13:44:45.375Z,25.76
2018-05-12T13:45:47.209Z,25.72
2018-05-12T13:46:49.118Z,25.69
2018-05-12T13:47:51.019Z,25.73
2018-05-12T13:48:52.896Z,25.87
2018-05-12T13:50:07.055Z,26.13
2018-05-12T13:51:08.936Z,26.28
2018-05-12T13:52:10.817Z,26.35
2018-05-12T13:53:12.702Z,26.33
2018-05-12T13:54:14.577Z,26.35
2018-05-12T13:55:16.395Z,26.23
2018-05-12T13:56:18.282Z,26.07
2018-05-12T13:57:20.200Z,26.20
2018-05-12T13:58:22.109Z,26.12
2018-05-12T13:59:36.260Z,26.25
2018-05-12T14:00:38.148Z,26.45
2018-05-12T14:01:40.029Z,26.57
2018-05-12T14:02:41.943Z,26.70
2018-05-12T14:03:43.769Z,26.54
2018-05-12T14:04:45.582Z,26.39
2018-05-12T14:05:47.468Z,26.23
2018-05-12T14:06:49.356Z,26.18
2018-05-12T14:07:51.259Z,26.17
2018-05-12T14:09:05.440Z,26.17
2018-05-12T14:10:07.320Z,26.23
2018-05-12T14:11:09.195Z,26.26
2018-05-12T14:12:11.088Z,26.32
2018-05-12T14:13:12.928Z,26.33
2018-05-12T14:14:14.760Z,26.39
2018-05-12T14:15:16.648Z,26.43
2018-05-12T14:16:18.534Z,26.55
2018-05-12T14:17:20.418Z,26.75
2018-05-12T14:18:34.574Z,26.99
2018-05-12T14:19:36.456Z,27.06
2018-05-12T14:20:38.341Z,27.13
2018-05-12T14:21:40.246Z,27.24
2018-05-12T14:22:42.064Z,27.24
2018-05-12T14:23:43.884Z,27.07
2018-05-12T14:24:45.792Z,27.17
2018-05-12T14:25:47.675Z,27.17
2018-05-12T14:26:49.575Z,27.25
2018-05-12T14:28:03.744Z,27.12
2018-05-12T14:29:05.698Z,27.04
2018-05-12T14:30:07.559Z,27.09
2018-05-12T14:31:09.469Z,27.03
2018-05-12T14:32:11.308Z,27.06
2018-05-12T14:33:13.120Z,27.17
2018-05-12T14:34:15.010Z,27.17
2018-05-12T14:35:16.932Z,27.02
2018-05-12T14:36:18.793Z,26.87
2018-05-12T14:37:32.973Z,26.67
2018-05-12T14:38:34.886Z,26.54
2018-05-12T14:39:36.800Z,26.40
2018-05-12T14:40:38.679Z,26.44
2018-05-12T14:41:40.500Z,26.28
2018-05-12T14:42:42.377Z,26.05
2018-05-12T14:43:44.223Z,25.97
2018-05-12T14:44:46.126Z,25.97
2018-05-12T14:45:48.012Z,26.17
2018-05-12T14:47:02.172Z,26.39
2018-05-12T14:48:04.080Z,26.40
2018-05-12T14:49:05.957Z,26.57
2018-05-12T14:50:07.841Z,26.36
2018-05-12T14:51:09.661Z,26.37
2018-05-12T14:52:11.496Z,26.32
2018-05-12T14:53:13.377Z,26.29
2018-05-12T14:54:15.264Z,26.33
2018-05-12T14:55:17.163Z,26.29
2018-05-12T14:56:31.293Z,26.26
2018-05-12T14:57:33.175Z,26.26
2018-05-12T14:58:35.078Z,26.21
2018-05-12T14:59:36.964Z,26.12
2018-05-12T15:00:38.799Z,26.01
2018-05-12T15:01:40.620Z,25.90
2018-05-12T15:02:42.523Z,25.76
2018-05-12T15:03:44.433Z,25.55
2018-05-12T15:04:46.346Z,25.50
2018-05-12T15:06:00.524Z,25.47
2018-05-12T15:07:02.406Z,25.43
2018-05-12T15:08:04.283Z,25.50
2018-05-12T15:09:06.171Z,25.32
2018-05-12T15:10:08.008Z,25.35
2018-05-12T15:11:09.824Z,25.32
2018-05-12T15:12:11.725Z,25.33
2018-05-12T15:13:13.612Z,25.38
2018-05-12T15:14:15.496Z,25.45
2018-05-12T15:15:29.675Z,25.45
2018-05-12T15:16:31.556Z,25.58
2018-05-12T15:17:33.432Z,25.60
2018-05-12T15:18:35.321Z,25.64
2018-05-12T15:19:37.160Z,25.75
2018-05-12T15:20:38.981Z,25.79
2018-05-12T15:21:40.869Z,25.72
2018-05-12T15:22:42.731Z,25.67
2018-05-12T15:23:44.550Z,25.69
2018-05-12T15:24:58.768Z,25.95
2018-05-12T15:26:00.646Z,25.92
2018-05-12T15:27:02.534Z,25.90
2018-05-12T15:28:04.412Z,25.83
2018-05-12T15:29:06.250Z,25.76
2018-05-12T15:30:08.065Z,25.72
2018-05-12T15:31:09.947Z,25.60
2018-05-12T15:32:11.830Z,25.46
2018-05-12T15:33:13.712Z,25.35
2018-05-12T15:34:27.888Z,25.27
2018-05-12T15:35:29.792Z,25.21
2018-05-12T15:36:31.669Z,25.10
2018-05-12T15:37:33.556Z,25.23
2018-05-12T15:38:35.371Z,25.39
2018-05-12T15:39:37.189Z,25.45
2018-05-12T15:40:39.091Z,25.52
2018-05-12T15:41:40.974Z,25.54
2018-05-12T15:42:42.879Z,25.43
2018-05-12T15:43:57.096Z,25.43
2018-05-12T15:44:58.933Z,25.42
2018-05-12T15:46:00.814Z,25.42
2018-05-12T15:47:02.710Z,25.28
2018-05-12T15:48:04.532Z,25.10
2018-05-12T15:49:06.364Z,25.00
2018-05-12T15:50:08.246Z,25.05
2018-05-12T15:51:10.153Z,25.06
2018-05-12T15:52:12.048Z,24.90
2018-05-12T15:53:26.187Z,24.83
2018-05-12T15:54:28.089Z,24.80
2018-05-12T15:55:29.970Z,24.76
2018-05-12T15:56:31.869Z,24.64
2018-05-12T15:57:33.689Z,24.69
2018-05-12T15:58:35.504Z,24.69
2018-05-12T15:59:37.382Z,24.73
2018-05-12T16:00:39.263Z,24.71
2018-05-12T16:01:41.164Z,24.69
2018-05-12T16:02:55.340Z,24.73
2018-05-12T16:03:57.248Z,24.76
2018-05-12T16:04:59.150Z,24.55
2018-05-12T16:06:01.051Z,24.57
2018-05-12T16:07:02.882Z,24.53
2018-05-12T16:08:04.710Z,24.57
2018-05-12T16:09:06.591Z,24.49
2018-05-12T16:10:08.493Z,24.50
2018-05-12T16:11:10.418Z,24.43
2018-05-12T16:12:24.646Z,24.50
2018-05-12T16:13:26.482Z,24.60
2018-05-12T16:14:28.361Z,24.71
2018-05-12T16:15:30.245Z,24.84
2018-05-12T16:16:32.062Z,24.81
2018-05-12T16:17:33.896Z,24.78
2018-05-12T16:18:35.784Z,24.96
2018-05-12T16:19:37.692Z,24.91
2018-05-12T16:20:39.555Z,24.98
2018-05-12T16:21:53.714Z,24.73
2018-05-12T16:22:55.583Z,24.57
2018-05-12T16:23:57.458Z,24.49
2018-05-12T16:24:59.337Z,24.37
2018-05-12T16:26:01.175Z,24.40
2018-05-12T16:27:03.000Z,24.52
2018-05-12T16:28:04.908Z,24.58
2018-05-12T16:29:06.815Z,24.58
2018-05-12T16:30:08.716Z,24.80
2018-05-12T16:31:22.948Z,24.98
2018-05-12T16:32:24.784Z,25.09
2018-05-12T16:33:26.661Z,25.32
2018-05-12T16:34:28.553Z,25.36
2018-05-12T16:35:30.375Z,25.54
2018-05-12T16:36:32.187Z,25.69
2018-05-12T16:37:34.082Z,25.62
2018-05-12T16:38:35.956Z,25.64
2018-05-12T16:39:37.862Z,25.55
2018-05-12T16:40:52.010Z,25.58
2018-05-12T16:41:53.913Z,25.57
2018-05-12T16:42:55.794Z,25.52
2018-05-12T16:43:57.800Z,25.60
2018-05-12T16:44:59.619Z,25.72
2018-05-12T16:46:01.451Z,25.83
2018-05-12T16:47:03.344Z,25.76
2018-05-12T16:48:05.244Z,25.80
2018-05-12T16:49:07.129Z,25.80
2018-05-12T16:50:21.284Z,25.83
2018-05-12T16:51:23.157Z,25.97
2018-05-12T16:52:25.040Z,26.12
2018-05-12T16:53:26.923Z,26.13
2018-05-12T16:54:28.763Z,26.12
2018-05-12T16:55:30.599Z,26.18
2018-05-12T16:56:32.502Z,26.05
2018-05-12T16:57:34.398Z,25.97
2018-05-12T16:58:36.277Z,26.07
2018-05-12T16:59:50.425Z,26.28
2018-05-12T17:00:52.310Z,26.32
2018-05-12T17:01:54.185Z,26.55
2018-05-12T17:02:56.090Z,26.55
2018-05-12T17:03:57.927Z,26.44
2018-05-12T17:04:59.741Z,26.47
2018-05-12T17:06:01.642Z,26.58
2018-05-12T17:07:03.524Z,26.57
2018-05-12T17:08:50.753Z,26.76
2018-05-12T17:09:52.675Z,26.73
2018-05-12T17:10:54.576Z,26.75
2018-05-12T17:11:56.450Z,26.75
2018-05-12T17:12:58.265Z,26.72
2018-05-12T17:14:00.083Z,26.73
2018-05-12T17:15:01.979Z,26.75
2018-05-12T17:16:03.880Z,26.87
2018-05-12T17:17:05.780Z,26.80
2018-05-12T17:18:19.940Z,26.73
2018-05-12T17:19:21.844Z,26.65
2018-05-12T17:20:23.731Z,26.57
2018-05-12T17:21:25.636Z,26.57
2018-05-12T17:22:27.451Z,26.58
2018-05-12T17:23:29.272Z,26.48
2018-05-12T17:24:31.172Z,26.48
2018-05-12T17:25:33.058Z,26.54
2018-05-12T17:26:34.969Z,26.45
2018-05-12T17:27:49.142Z,26.50
2018-05-12T17:28:51.026Z,26.62
2018-05-12T17:29:52.954Z,26.63
2018-05-12T17:30:54.825Z,26.55
2018-05-12T17:31:56.658Z,26.67
2018-05-12T17:32:58.515Z,26.85
2018-05-12T17:34:00.392Z,27.02
2018-05-12T17:35:02.311Z,27.18
2018-05-12T17:36:04.210Z,27.06
2018-05-12T17:37:18.362Z,26.91
2018-05-12T17:38:20.245Z,26.94
2018-05-12T17:39:22.150Z,26.85
2018-05-12T17:40:24.062Z,26.62
2018-05-12T17:41:25.904Z,26.47
2018-05-12T17:42:27.753Z,26.29
2018-05-12T17:43:29.652Z,26.28
2018-05-12T17:44:31.558Z,26.21
2018-05-12T17:45:33.471Z,25.97
2018-05-12T17:46:47.645Z,25.90
2018-05-12T17:47:49.524Z,25.69
2018-05-12T17:48:51.405Z,25.55
2018-05-12T17:49:53.291Z,25.28
2018-05-12T17:50:55.130Z,25.15
2018-05-12T17:51:56.966Z,25.06
2018-05-12T17:52:58.852Z,25.05
2018-05-12T17:54:00.768Z,24.93
2018-05-12T17:55:02.672Z,24.80
2018-05-12T17:56:16.850Z,24.55
2018-05-12T17:57:18.734Z,24.42
2018-05-12T17:58:20.636Z,24.30
2018-05-12T17:59:22.515Z,24.28
2018-05-12T18:00:24.362Z,24.32
2018-05-12T18:01:26.219Z,24.37
2018-05-12T18:02:28.134Z,24.47
2018-05-12T18:03:30.032Z,24.46
2018-05-12T18:04:31.938Z,24.57
2018-05-12T18:05:46.091Z,24.50
2018-05-12T18:06:47.984Z,24.58
2018-05-12T18:07:49.890Z,24.61
2018-05-12T18:08:51.793Z,24.73
2018-05-12T18:09:53.635Z,24.78
2018-05-12T18:10:55.458Z,24.76
2018-05-12T18:11:57.355Z,24.71
2018-05-12T18:12:59.261Z,24.65
2018-05-12T18:14:01.164Z,24.46
2018-05-12T18:15:15.325Z,24.49
2018-05-12T18:16:17.221Z,24.53
2018-05-12T18:17:19.189Z,24.52
2018-05-12T18:18:20.984Z,24.58
2018-05-12T18:19:22.790Z,24.53
2018-05-12T18:20:24.610Z,24.62
2018-05-12T18:21:26.515Z,24.55
2018-05-12T18:22:28.474Z,24.61
2018-05-12T18:23:30.347Z,24.53
2018-05-12T18:24:44.531Z,24.52
2018-05-12T18:25:46.432Z,24.49
2018-05-12T18:26:48.340Z,24.42
2018-05-12T18:27:50.246Z,24.34
2018-05-12T18:28:52.080Z,24.34
2018-05-12T18:29:53.922Z,24.32
2018-05-12T18:31:41.187Z,24.15
2018-05-12T18:32:43.085Z,24.15
2018-05-12T18:33:44.980Z,24.02
2018-05-12T18:34:46.873Z,24.03
2018-05-12T18:35:48.737Z,24.03
2018-05-12T18:36:50.547Z,24.06
2018-05-12T18:37:52.460Z,23.97
2018-05-12T18:38:54.365Z,23.93
2018-05-12T18:39:56.267Z,23.93
2018-05-12T18:41:10.447Z,23.91
2018-05-12T18:42:32.484Z,23.76
2018-05-12T18:45:31.534Z,23.63
2018-05-12T18:46:33.432Z,23.58
2018-05-12T18:47:35.314Z,23.65
2018-05-12T18:48:37.131Z,23.57
2018-05-12T18:49:38.957Z,23.53
2018-05-12T18:50:40.879Z,23.48
2018-05-12T18:51:42.768Z,23.42
2018-05-12T18:52:44.662Z,23.39
2018-05-12T18:53:58.820Z,23.42
2018-05-12T18:55:00.716Z,23.28
2018-05-12T18:56:02.610Z,23.27
2018-05-12T18:57:04.489Z,23.20
2018-05-12T18:58:06.305Z,23.19
2018-05-12T18:59:08.139Z,23.12
2018-05-12T19:00:10.039Z,23.15
2018-05-12T19:01:12.181Z,23.07
2018-05-12T19:02:14.125Z,23.02
2018-05-12T19:03:28.345Z,23.00
2018-05-12T19:04:30.293Z,23.01
2018-05-12T19:05:32.222Z,22.97
2018-05-12T19:06:34.095Z,23.04
2018-05-12T19:07:35.937Z,22.98
2018-05-12T19:08:37.764Z,22.85
2018-05-12T19:09:39.647Z,22.88
2018-05-12T19:10:41.523Z,22.82
2018-05-12T19:11:43.414Z,22.72
2018-05-12T19:12:57.603Z,22.62
2018-05-12T19:13:59.497Z,22.61
2018-05-12T19:15:01.371Z,22.51
2018-05-12T19:16:03.256Z,22.45
2018-05-12T19:17:05.120Z,22.46
2018-05-12T19:18:06.901Z,22.45
2018-05-12T19:19:08.826Z,22.52
2018-05-12T19:20:10.729Z,22.43
2018-05-12T19:21:12.623Z,22.40
2018-05-12T19:22:26.858Z,22.45
2018-05-12T19:23:28.740Z,22.35
2018-05-12T19:24:30.609Z,22.39
2018-05-12T19:25:32.485Z,22.46
2018-05-12T19:26:34.477Z,22.51
2018-05-12T19:27:36.245Z,22.52
2018-05-12T19:28:38.121Z,22.46
2018-05-12T19:29:40.022Z,22.46
2018-05-12T19:30:41.914Z,22.47
2018-05-12T19:31:56.059Z,22.39
2018-05-12T19:32:57.956Z,22.39
2018-05-12T19:33:59.941Z,22.28
2018-05-12T19:35:01.836Z,22.25
2018-05-12T19:36:03.643Z,22.22
2018-05-12T19:37:05.453Z,22.17
2018-05-12T19:38:07.330Z,22.14
2018-05-12T19:39:09.207Z,22.12
2018-05-12T19:40:11.163Z,22.12
2018-05-12T19:41:25.321Z,22.12
2018-05-12T19:42:27.194Z,22.02
2018-05-12T19:43:29.090Z,21.98
2018-05-12T19:44:30.959Z,21.96
2018-05-12T19:45:32.777Z,21.92
2018-05-12T19:46:34.619Z,21.90
2018-05-12T19:47:36.521Z,21.90
2018-05-12T19:48:38.477Z,21.83
2018-05-12T19:49:40.419Z,21.86
2018-05-12T19:50:54.516Z,21.90
2018-05-12T19:51:56.447Z,21.90
2018-05-12T19:52:58.347Z,21.87
2018-05-12T19:54:00.212Z,22.00
2018-05-12T19:55:02.038Z,22.03
2018-05-12T19:56:03.835Z,21.99
2018-05-12T19:57:05.734Z,21.98
2018-05-12T19:58:07.631Z,22.00
2018-05-12T19:59:09.520Z,22.06
2018-05-12T20:01:28.219Z,22.03
2018-05-12T20:02:30.112Z,22.09
2018-05-12T20:03:32.014Z,22.14
2018-05-12T20:04:34.174Z,22.17
2018-05-12T20:05:36.007Z,22.21
